Immokalee, Florida
Current Conditions -  °F | °C
As of 8:15 AM on Thursday 23 Oct 2014 (Local Time) from KIMM Reporting Station
Clear Clear  
Wind Chill: 21°   Ceiling: Unl
Heat Index: 21°   Visibility: 7mi
Dew Point: 21°   Wind: 9mph
Humidity: 100%   Direction: 30°NNE
Pressure: 29.94"   Gusts: NA
Location:  26.42°N, 81.42°W
Report Text: KIMM 231215Z AUTO 03008KT 7SM CLR 21/21 A2994 RMK A01 P000
Loading
Personal Weather Stations






























Interactive Weather Map
Tropical Storm Tracking
New forecast layout! Learn more

10-Day Weather Forecast

Advertisements
Track Severe Weather on mobile